Time;durP1;ratioP1;P1;durP2;ratioP2;P2;SDS_P1;SDS_P2;PMS_P1;PMS_P2;Temp;Humidity;BMP_temperature;BMP_pressure;BME280_temperature;BME280_humidity;BME280_pressure;Samples;Min_cycle;Max_cycle;Signal;HPM_P1;HPM_P2
2023/04/20 00:02:01;;;;;;;7.28;3.25;;;7.70;99.90;;;;;;4996315;28;20042;-82
2023/04/20 00:04:28;;;;;;;8.10;3.50;;;7.70;99.90;;;;;;4980588;28;20046;-82
2023/04/20 00:06:57;;;;;;;6.50;3.03;;;7.70;99.90;;;;;;5012552;28;20085;-83
2023/04/20 00:09:23;;;;;;;8.20;3.38;;;7.70;99.90;;;;;;5012225;28;20473;-82
2023/04/20 00:11:49;;;;;;;6.97;3.22;;;7.80;99.90;;;;;;4996188;28;20113;-83
2023/04/20 00:14:15;;;;;;;7.00;3.22;;;7.70;99.90;;;;;;5012488;28;20097;-82
2023/04/20 00:16:41;;;;;;;7.55;3.47;;;7.70;99.90;;;;;;5012399;28;20050;-82
2023/04/20 00:19:08;;;;;;;7.28;3.13;;;7.80;99.90;;;;;;5012470;28;20050;-82
2023/04/20 00:21:34;;;;;;;6.95;3.20;;;7.80;99.90;;;;;;5012489;28;20077;-82
2023/04/20 00:24:00;;;;;;;8.38;3.47;;;7.80;99.90;;;;;;5012163;28;20134;-82
2023/04/20 00:26:26;;;;;;;6.53;3.15;;;7.80;99.90;;;;;;4979666;28;20050;-82
2023/04/20 00:28:52;;;;;;;7.57;3.40;;;7.80;99.90;;;;;;5012174;28;20042;-82
2023/04/20 00:31:19;;;;;;;11.55;3.25;;;7.80;99.90;;;;;;5012247;28;20128;-82
2023/04/20 00:33:47;;;;;;;7.95;3.33;;;7.80;99.90;;;;;;4995938;28;20066;-83
2023/04/20 00:36:13;;;;;;;7.55;3.25;;;7.80;99.90;;;;;;5012241;28;20050;-83
2023/04/20 00:38:39;;;;;;;6.70;3.28;;;7.90;99.90;;;;;;4996048;28;20057;-83
2023/04/20 00:41:05;;;;;;;7.07;3.15;;;7.90;99.90;;;;;;5011723;28;20482;-83
2023/04/20 00:43:31;;;;;;;8.88;3.47;;;7.90;99.90;;;;;;5012178;28;20050;-82
2023/04/20 00:45:57;;;;;;;8.63;3.40;;;8.00;99.90;;;;;;5012748;28;20125;-83
2023/04/20 00:48:23;;;;;;;7.57;3.15;;;8.00;99.90;;;;;;4999262;28;20050;-83
2023/04/20 00:50:50;;;;;;;6.65;3.30;;;8.00;99.90;;;;;;4999254;28;20183;-83
2023/04/20 00:53:17;;;;;;;8.05;3.22;;;8.00;99.90;;;;;;4999413;28;20136;-83
2023/04/20 00:55:43;;;;;;;8.15;3.20;;;8.00;99.90;;;;;;5015644;28;20045;-83
2023/04/20 00:58:10;;;;;;;7.25;3.20;;;8.00;99.90;;;;;;5015505;28;20061;-82
2023/04/20 01:00:37;;;;;;;6.07;2.90;;;8.00;99.90;;;;;;4999166;28;20058;-83
2023/04/20 01:03:04;;;;;;;7.70;2.90;;;8.10;99.90;;;;;;5015384;28;20474;-83
2023/04/20 01:05:31;;;;;;;4.90;2.55;;;8.10;99.90;;;;;;5015482;28;20046;-83
2023/04/20 01:07:56;;;;;;;8.32;3.10;;;8.20;99.90;;;;;;4998861;28;20140;-83
2023/04/20 01:10:22;;;;;;;6.65;2.60;;;8.30;99.90;;;;;;5015074;28;20089;-83
2023/04/20 01:12:48;;;;;;;6.07;2.95;;;8.30;99.90;;;;;;5015133;28;20400;-83
2023/04/20 01:15:13;;;;;;;6.35;2.90;;;8.30;99.90;;;;;;5015187;28;20049;-83
2023/04/20 01:17:39;;;;;;;8.48;2.80;;;8.30;99.90;;;;;;5015193;28;20082;-83
2023/04/20 01:20:13;;;;;;;8.70;2.60;;;8.40;99.90;;;;;;4998810;28;20078;-83
2023/04/20 01:22:50;;;;;;;6.75;2.70;;;8.40;99.90;;;;;;5014978;28;20049;-83
2023/04/20 01:25:16;;;;;;;5.57;2.70;;;8.40;99.90;;;;;;5014769;28;20054;-82
2023/04/20 01:27:42;;;;;;;7.20;2.70;;;8.50;99.90;;;;;;5014629;28;20046;-84
2023/04/20 01:30:09;;;;;;;8.48;2.50;;;8.50;99.90;;;;;;5014671;28;20061;-83
2023/04/20 01:32:38;;;;;;;7.07;2.45;;;8.50;99.90;;;;;;5014982;28;20449;-83
2023/04/20 01:35:04;;;;;;;7.00;2.63;;;9.10;99.90;;;;;;5014830;28;20050;-84
2023/04/20 01:37:31;;;;;;;6.65;2.72;;;8.50;99.90;;;;;;4998462;28;20062;-84
2023/04/20 01:39:57;;;;;;;8.57;2.50;;;8.50;99.90;;;;;;5014563;28;20393;-84
2023/04/20 01:42:23;;;;;;;7.63;2.53;;;8.50;99.90;;;;;;5014825;28;20050;-83
2023/04/20 01:44:48;;;;;;;6.25;2.40;;;8.50;99.90;;;;;;5014488;28;20378;-83
2023/04/20 01:47:14;;;;;;;8.48;2.70;;;8.50;99.90;;;;;;4997988;28;20050;-83
2023/04/20 01:49:40;;;;;;;7.18;2.60;;;8.50;99.90;;;;;;5014268;28;20085;-83
2023/04/20 01:52:07;;;;;;;6.63;2.55;;;8.50;99.90;;;;;;4997938;28;20085;-83
2023/04/20 01:54:32;;;;;;;6.93;2.80;;;8.40;99.90;;;;;;5014521;28;20501;-83
2023/04/20 01:56:58;;;;;;;8.05;2.60;;;8.50;99.90;;;;;;5013884;28;20132;-83
2023/04/20 01:59:24;;;;;;;7.40;2.67;;;8.40;99.90;;;;;;5013892;28;20053;-83
2023/04/20 02:01:50;;;;;;;6.15;2.50;;;8.40;99.90;;;;;;5014333;28;20045;-83
2023/04/20 02:04:16;;;;;;;6.60;2.70;;;8.40;99.90;;;;;;5014367;28;20045;-83
2023/04/20 02:06:41;;;;;;;7.20;2.67;;;8.40;99.90;;;;;;5013601;28;20054;-83
2023/04/20 02:09:08;;;;;;;6.35;2.67;;;8.40;99.90;;;;;;4997752;28;20046;-83
2023/04/20 02:11:34;;;;;;;7.43;2.70;;;8.40;99.90;;;;;;5014112;28;20049;-83
2023/04/20 02:14:00;;;;;;;6.68;2.70;;;8.40;99.90;;;;;;4997855;28;20050;-84
2023/04/20 02:16:28;;;;;;;6.20;2.53;;;8.40;99.90;;;;;;5014153;28;20048;-84
2023/04/20 02:18:54;;;;;;;7.78;2.72;;;8.30;99.90;;;;;;5014102;28;20049;-84
2023/04/20 02:21:20;;;;;;;7.05;2.60;;;8.30;99.90;;;;;;5013763;28;20046;-84
2023/04/20 02:23:46;;;;;;;7.70;2.63;;;8.30;99.90;;;;;;5013948;28;20129;-84
2023/04/20 02:26:11;;;;;;;7.15;2.80;;;8.30;99.90;;;;;;5013489;28;20503;-84
2023/04/20 02:28:37;;;;;;;8.43;2.60;;;8.20;99.90;;;;;;5013748;28;20046;-84
2023/04/20 02:31:03;;;;;;;8.27;2.90;;;8.30;99.90;;;;;;5013763;28;20111;-84
2023/04/20 02:33:29;;;;;;;6.70;2.60;;;8.20;99.90;;;;;;4997435;28;20092;-84
2023/04/20 02:35:55;;;;;;;6.10;2.60;;;8.20;99.90;;;;;;4997391;28;20057;-84
2023/04/20 02:38:21;;;;;;;6.65;2.83;;;8.20;99.90;;;;;;4981181;28;20050;-83
2023/04/20 02:40:46;;;;;;;6.07;2.60;;;8.20;99.90;;;;;;5013288;28;20117;-84
2023/04/20 02:43:12;;;;;;;6.32;2.72;;;8.20;99.90;;;;;;4981213;28;20089;-83
2023/04/20 02:45:38;;;;;;;5.90;2.80;;;8.20;99.90;;;;;;4997148;28;20053;-83
2023/04/20 02:48:04;;;;;;;5.95;2.70;;;8.20;99.90;;;;;;5013427;28;20046;-83
2023/04/20 02:50:30;;;;;;;6.65;2.65;;;8.20;99.90;;;;;;5013510;28;20056;-83
2023/04/20 02:52:56;;;;;;;7.25;2.53;;;8.20;99.90;;;;;;5013491;28;20045;-84
2023/04/20 02:55:22;;;;;;;6.57;2.50;;;8.20;99.90;;;;;;4997168;28;20042;-83
2023/04/20 02:57:47;;;;;;;7.15;2.80;;;7.80;99.90;;;;;;5014347;28;20049;-83
2023/04/20 03:00:13;;;;;;;8.15;2.55;;;8.20;99.90;;;;;;4996990;28;20485;-82
2023/04/20 03:02:39;;;;;;;6.47;2.75;;;8.20;99.90;;;;;;5012999;28;20089;-83
2023/04/20 03:05:06;;;;;;;6.53;2.80;;;8.20;99.90;;;;;;5013264;28;20081;-82
2023/04/20 03:07:32;;;;;;;8.85;3.10;;;8.20;99.90;;;;;;5013110;28;20516;-83
2023/04/20 03:09:57;;;;;;;7.80;3.10;;;8.10;99.90;;;;;;4980232;28;20133;-82
2023/04/20 03:12:23;;;;;;;6.78;3.00;;;8.20;99.90;;;;;;5012909;28;20137;-83
2023/04/20 03:14:49;;;;;;;6.57;3.03;;;8.20;99.90;;;;;;5012986;28;20046;-84
2023/04/20 03:17:15;;;;;;;6.60;2.83;;;8.20;99.90;;;;;;4996873;28;20136;-83
2023/04/20 03:19:41;;;;;;;7.00;3.00;;;8.20;99.90;;;;;;5012775;28;20500;-83
2023/04/20 03:22:07;;;;;;;7.03;3.20;;;8.20;99.90;;;;;;4996701;28;20057;-83
2023/04/20 03:24:33;;;;;;;8.38;2.97;;;8.10;99.90;;;;;;5012648;28;20057;-83
2023/04/20 03:26:59;;;;;;;6.50;2.92;;;8.10;99.90;;;;;;5012384;28;20100;-83
2023/04/20 03:29:24;;;;;;;7.00;2.90;;;8.10;99.90;;;;;;5012675;28;20042;-83
2023/04/20 03:31:50;;;;;;;7.35;3.20;;;8.10;99.90;;;;;;5012902;28;20124;-83
2023/04/20 03:34:16;;;;;;;7.88;3.10;;;8.10;99.90;;;;;;5012816;28;20103;-83
2023/04/20 03:36:41;;;;;;;6.65;2.90;;;8.10;99.90;;;;;;4996605;28;20100;-83
2023/04/20 03:39:08;;;;;;;7.53;3.10;;;8.10;99.90;;;;;;4996504;28;20049;-83
2023/04/20 03:41:34;;;;;;;7.15;3.00;;;8.10;99.90;;;;;;4996569;28;20061;-83
2023/04/20 03:44:00;;;;;;;8.95;3.60;;;8.10;99.90;;;;;;5013741;28;20045;-82
2023/04/20 03:46:26;;;;;;;9.10;3.30;;;8.20;99.90;;;;;;5012162;28;20409;-83
2023/04/20 03:48:51;;;;;;;8.68;3.70;;;8.20;99.90;;;;;;5012519;28;20056;-83
2023/04/20 03:51:17;;;;;;;8.55;3.42;;;8.20;99.90;;;;;;5012732;28;20104;-83
2023/04/20 03:53:43;;;;;;;7.43;3.33;;;8.10;99.90;;;;;;5012589;28;20140;-83
2023/04/20 03:56:08;;;;;;;6.85;3.30;;;8.20;99.90;;;;;;5012453;28;20054;-83
2023/04/20 03:58:34;;;;;;;7.78;3.03;;;8.20;99.90;;;;;;4980156;28;20073;-83
2023/04/20 04:01:02;;;;;;;4.63;2.15;;;8.20;99.90;;;;;;4996201;28;20050;-83
2023/04/20 04:03:27;;;;;;;7.13;3.20;;;8.30;97.70;;;;;;4996276;28;20046;-83
2023/04/20 04:05:53;;;;;;;7.43;3.00;;;8.30;97.60;;;;;;4996000;28;20452;-83
2023/04/20 04:08:19;;;;;;;6.28;2.72;;;8.30;97.40;;;;;;5012409;28;20392;-83
2023/04/20 04:10:45;;;;;;;6.95;2.88;;;8.30;97.20;;;;;;5012635;28;20536;-83
2023/04/20 04:13:10;;;;;;;6.07;2.65;;;8.30;96.90;;;;;;5012190;28;20060;-82
2023/04/20 04:15:36;;;;;;;7.20;2.75;;;8.40;96.70;;;;;;5012474;28;20049;-82
2023/04/20 04:18:02;;;;;;;8.40;2.60;;;8.30;96.50;;;;;;4996198;28;20477;-83
2023/04/20 04:20:28;;;;;;;6.50;2.75;;;8.30;96.90;;;;;;5012534;28;20160;-84
2023/04/20 04:22:53;;;;;;;4.32;1.95;;;8.30;97.90;;;;;;4980579;28;20054;-82
2023/04/20 04:25:22;;;;;;;7.20;2.55;;;8.20;98.30;;;;;;4980128;28;20058;-82
2023/04/20 04:27:48;;;;;;;6.47;2.20;;;8.20;97.90;;;;;;4980282;28;20050;-83
2023/04/20 04:30:16;;;;;;;5.28;2.30;;;8.20;98.30;;;;;;4980034;28;20398;-83
2023/04/20 04:32:43;;;;;;;5.50;2.28;;;8.20;98.70;;;;;;4980128;28;20093;-83
2023/04/20 04:35:13;;;;;;;7.93;2.42;;;8.20;99.10;;;;;;4980552;28;20137;-81
2023/04/20 04:37:41;;;;;;;5.30;2.20;;;8.10;99.90;;;;;;4996259;28;20443;-82
2023/04/20 04:40:08;;;;;;;7.35;2.40;;;8.10;99.90;;;;;;4996269;28;20053;-82
2023/04/20 04:42:37;;;;;;;6.13;2.22;;;8.10;99.90;;;;;;4996325;28;20046;-82
2023/04/20 04:45:03;;;;;;;5.97;2.45;;;8.10;99.90;;;;;;4996242;28;20050;-82
2023/04/20 04:47:34;;;;;;;6.47;2.30;;;8.10;99.90;;;;;;4979947;28;20058;-82
2023/04/20 04:50:04;;;;;;;6.25;2.08;;;8.00;99.90;;;;;;4996109;28;20093;-82
2023/04/20 04:52:31;;;;;;;7.07;2.38;;;8.00;99.90;;;;;;5006914;28;20372;-81
2023/04/20 04:54:57;;;;;;;5.95;2.17;;;8.00;99.90;;;;;;5015344;28;20108;-83
2023/04/20 04:57:23;;;;;;;4.70;2.05;;;7.90;99.90;;;;;;5015552;28;20134;-83
2023/04/20 04:59:49;;;;;;;7.07;2.25;;;7.90;99.90;;;;;;5015224;28;20129;-83
2023/04/20 05:02:15;;;;;;;7.10;2.60;;;7.80;99.90;;;;;;4999102;28;20056;-83
2023/04/20 05:04:41;;;;;;;6.35;2.30;;;7.80;99.90;;;;;;4999148;28;20072;-83
2023/04/20 05:07:09;;;;;;;5.65;2.47;;;7.70;99.90;;;;;;5015255;28;20107;-83
2023/04/20 05:09:35;;;;;;;6.70;2.55;;;7.70;99.90;;;;;;4983114;28;20042;-83
2023/04/20 05:12:02;;;;;;;7.68;2.53;;;7.70;99.90;;;;;;4998519;28;20060;-82
2023/04/20 05:14:30;;;;;;;6.32;2.30;;;7.80;99.90;;;;;;5015165;28;20046;-83
2023/04/20 05:16:57;;;;;;;5.88;2.50;;;7.70;99.90;;;;;;5014923;28;20088;-83
2023/04/20 05:19:23;;;;;;;5.65;2.28;;;7.70;99.90;;;;;;5015080;28;20053;-83
2023/04/20 05:21:48;;;;;;;7.45;2.38;;;7.80;99.90;;;;;;5015157;28;20425;-82
2023/04/20 05:24:16;;;;;;;6.40;2.40;;;7.70;99.90;;;;;;5014910;28;20046;-83
2023/04/20 05:26:42;;;;;;;6.53;2.30;;;7.70;99.90;;;;;;5014974;28;20539;-83
2023/04/20 05:29:08;;;;;;;5.38;2.30;;;7.70;99.90;;;;;;5014852;28;20429;-83
2023/04/20 05:31:34;;;;;;;12.25;6.07;;;7.70;99.90;;;;;;4982190;28;20057;-83
2023/04/20 05:34:00;;;;;;;11.52;6.00;;;7.70;99.90;;;;;;5014847;28;20457;-83
2023/04/20 05:36:28;;;;;;;8.35;3.45;;;7.60;99.90;;;;;;4998725;28;20086;-83
2023/04/20 05:38:54;;;;;;;15.77;9.20;;;7.60;99.90;;;;;;5014407;28;20061;-84
2023/04/20 05:41:25;;;;;;;9.27;5.30;;;7.60;99.90;;;;;;4998443;28;20046;-84
2023/04/20 05:43:51;;;;;;;5.15;2.60;;;7.60;99.90;;;;;;4998492;28;20054;-84
2023/04/20 05:46:17;;;;;;;6.50;2.72;;;7.60;99.90;;;;;;4998054;28;20061;-84
2023/04/20 05:48:43;;;;;;;8.40;3.17;;;7.50;99.90;;;;;;4998185;28;20049;-84
2023/04/20 05:51:08;;;;;;;5.80;2.80;;;7.60;99.90;;;;;;5014595;28;20050;-84
2023/04/20 05:53:34;;;;;;;7.22;3.30;;;7.50;99.90;;;;;;5014291;28;20543;-84
2023/04/20 05:56:00;;;;;;;7.75;3.40;;;7.50;99.90;;;;;;5014302;28;20046;-83
2023/04/20 05:58:26;;;;;;;7.28;3.60;;;7.50;99.90;;;;;;4981991;28;20088;-83
2023/04/20 06:00:52;;;;;;;8.13;3.95;;;7.40;99.90;;;;;;5014334;28;20057;-83
2023/04/20 06:03:17;;;;;;;7.13;3.38;;;7.30;99.90;;;;;;5014309;28;20046;-83
2023/04/20 06:05:43;;;;;;;8.05;3.60;;;7.30;99.90;;;;;;5014292;28;20056;-83
2023/04/20 06:08:09;;;;;;;7.35;3.85;;;7.20;99.90;;;;;;5015282;28;20046;-83
2023/04/20 06:10:35;;;;;;;7.93;4.30;;;7.10;99.90;;;;;;4997898;28;20050;-84
2023/04/20 06:13:00;;;;;;;9.27;3.83;;;7.00;99.90;;;;;;5014116;28;20046;-83
2023/04/20 06:15:26;;;;;;;9.35;5.18;;;7.10;99.90;;;;;;5013861;28;20046;-83
2023/04/20 06:17:52;;;;;;;8.20;4.00;;;7.00;99.90;;;;;;4997743;28;20367;-83
2023/04/20 06:20:19;;;;;;;7.72;3.85;;;6.80;99.90;;;;;;5013943;28;20057;-82
2023/04/20 06:22:45;;;;;;;8.60;4.10;;;6.80;99.90;;;;;;5014027;28;20093;-81
2023/04/20 06:25:12;;;;;;;10.13;5.25;;;6.70;99.90;;;;;;5013603;28;20072;-81
2023/04/20 06:27:38;;;;;;;8.18;4.28;;;6.60;99.90;;;;;;5013804;28;20054;-78
2023/04/20 06:30:05;;;;;;;9.82;4.32;;;6.30;99.90;;;;;;4997220;28;20486;-79
2023/04/20 06:32:31;;;;;;;10.98;6.18;;;6.20;99.90;;;;;;5013879;28;20049;-78
2023/04/20 06:35:00;;;;;;;15.27;9.10;;;6.10;99.90;;;;;;5013514;28;20054;-78
2023/04/20 06:37:26;;;;;;;7.75;3.67;;;6.10;99.90;;;;;;5013570;28;20045;-78
2023/04/20 06:39:53;;;;;;;9.38;4.95;;;6.00;99.90;;;;;;5013683;28;20497;-79
2023/04/20 06:42:20;;;;;;;9.65;5.72;;;6.00;99.90;;;;;;5013427;28;20058;-78
2023/04/20 06:44:46;;;;;;;9.30;5.55;;;6.00;99.90;;;;;;4996329;28;20405;-79
2023/04/20 06:47:12;;;;;;;10.65;4.97;;;6.10;99.90;;;;;;5013499;28;20050;-78
2023/04/20 06:49:38;;;;;;;8.15;3.78;;;6.00;99.90;;;;;;5013246;28;20045;-79
2023/04/20 06:52:05;;;;;;;8.55;3.75;;;6.00;99.90;;;;;;5014508;28;20460;-79
2023/04/20 06:54:31;;;;;;;9.52;4.72;;;6.10;99.90;;;;;;5013486;28;20052;-78
2023/04/20 06:56:57;;;;;;;8.63;4.80;;;6.10;99.90;;;;;;4997130;28;20056;-79
2023/04/20 06:59:26;;;;;;;10.52;5.22;;;6.00;99.90;;;;;;5013098;28;20108;-78
2023/04/20 07:01:51;;;;;;;8.15;4.20;;;5.80;99.90;;;;;;5012958;28;20057;-79
2023/04/20 07:04:17;;;;;;;8.75;4.75;;;5.90;99.90;;;;;;4996988;28;20052;-79
2023/04/20 07:06:43;;;;;;;11.02;5.18;;;5.90;99.90;;;;;;5012715;28;20076;-80
2023/04/20 07:09:09;;;;;;;9.57;5.10;;;5.90;99.90;;;;;;4996569;28;20099;-79
2023/04/20 07:11:35;;;;;;;8.77;4.63;;;5.80;99.90;;;;;;4996932;28;20046;-80
2023/04/20 07:14:00;;;;;;;9.65;4.43;;;5.90;99.90;;;;;;4980640;28;20061;-80
2023/04/20 07:16:26;;;;;;;9.05;5.20;;;5.90;99.90;;;;;;4996715;28;20041;-80
2023/04/20 07:18:52;;;;;;;10.95;5.10;;;5.90;99.90;;;;;;5012851;28;20053;-80
2023/04/20 07:21:20;;;;;;;10.05;4.88;;;5.90;99.90;;;;;;4996942;28;20394;-80
2023/04/20 07:23:47;;;;;;;9.88;5.20;;;6.60;99.90;;;;;;4996640;28;20129;-80
2023/04/20 07:26:12;;;;;;;8.07;5.00;;;6.00;99.90;;;;;;4995899;28;20104;-80
2023/04/20 07:28:41;;;;;;;10.98;5.32;;;6.10;99.90;;;;;;4996104;28;20444;-80
2023/04/20 07:31:07;;;;;;;8.70;5.20;;;6.20;99.90;;;;;;5012894;28;20455;-81
2023/04/20 07:33:34;;;;;;;9.57;4.93;;;6.20;99.90;;;;;;5012735;28;20084;-81
2023/04/20 07:36:00;;;;;;;9.80;4.88;;;6.40;99.90;;;;;;5012856;28;20092;-81
2023/04/20 07:38:26;;;;;;;11.77;5.68;;;6.40;99.90;;;;;;5012785;28;20081;-81
2023/04/20 07:40:52;;;;;;;10.13;5.10;;;6.50;99.90;;;;;;5012756;28;20304;-81
2023/04/20 07:43:17;;;;;;;8.63;5.55;;;6.60;99.90;;;;;;4980355;28;20050;-80
2023/04/20 07:45:47;;;;;;;9.98;4.95;;;6.60;99.90;;;;;;4980325;28;20050;-81
2023/04/20 07:48:13;;;;;;;10.73;5.53;;;6.70;99.90;;;;;;4995914;28;20050;-81
2023/04/20 07:50:39;;;;;;;10.00;5.22;;;6.60;99.90;;;;;;4996418;28;20057;-81
2023/04/20 07:53:04;;;;;;;10.07;5.28;;;6.60;99.90;;;;;;5012643;28;20120;-81
2023/04/20 07:55:30;;;;;;;9.15;5.22;;;6.70;99.90;;;;;;5012691;28;20128;-81
2023/04/20 07:57:56;;;;;;;9.57;4.72;;;6.70;99.90;;;;;;5016958;28;20046;-81
2023/04/20 08:00:24;;;;;;;10.75;5.95;;;6.90;99.90;;;;;;5000473;28;20384;-81
2023/04/20 08:02:49;;;;;;;9.82;5.55;;;6.80;99.90;;;;;;5016427;28;20401;-81
2023/04/20 08:05:15;;;;;;;12.65;5.95;;;6.90;99.90;;;;;;5016466;28;20050;-81
2023/04/20 08:07:41;;;;;;;11.52;4.90;;;6.80;99.90;;;;;;4983719;28;20386;-79
2023/04/20 08:10:07;;;;;;;10.05;5.55;;;6.90;99.90;;;;;;5000004;28;20049;-80
2023/04/20 08:12:33;;;;;;;11.98;6.18;;;6.90;99.90;;;;;;5000247;28;20050;-80
2023/04/20 08:15:00;;;;;;;11.48;5.38;;;6.90;99.90;;;;;;4999885;28;20200;-80
2023/04/20 08:17:27;;;;;;;10.80;5.95;;;6.90;99.90;;;;;;5015908;28;20050;-81
2023/04/20 08:19:52;;;;;;;12.30;6.00;;;7.00;99.90;;;;;;5016356;28;20057;-81
2023/04/20 08:22:18;;;;;;;11.95;6.05;;;7.00;99.90;;;;;;5017267;28;20046;-81
2023/04/20 08:24:46;;;;;;;12.10;6.20;;;7.10;99.90;;;;;;4999769;28;20439;-81
2023/04/20 08:27:12;;;;;;;11.88;6.15;;;7.20;99.90;;;;;;4984034;28;20048;-81
2023/04/20 08:29:38;;;;;;;9.95;5.00;;;7.30;99.90;;;;;;4999770;28;20053;-80
2023/04/20 08:32:07;;;;;;;11.80;6.68;;;7.40;99.90;;;;;;4999810;28;20132;-81
2023/04/20 08:34:34;;;;;;;12.13;6.18;;;7.30;99.90;;;;;;4999517;28;20054;-81
2023/04/20 08:37:00;;;;;;;10.73;6.00;;;7.30;99.90;;;;;;4983556;28;20053;-81
2023/04/20 08:39:26;;;;;;;11.57;6.50;;;7.30;99.90;;;;;;5015357;28;20052;-81
2023/04/20 08:41:56;;;;;;;10.57;6.25;;;7.50;99.90;;;;;;4999559;28;20046;-82
2023/04/20 08:44:22;;;;;;;11.80;6.30;;;7.90;99.90;;;;;;5000240;28;20065;-81
2023/04/20 08:46:49;;;;;;;10.60;6.25;;;7.60;99.90;;;;;;5015722;28;20450;-81
2023/04/20 08:49:16;;;;;;;10.48;5.68;;;6.70;99.90;;;;;;5015316;28;20121;-78
2023/04/20 08:51:45;;;;;;;12.18;6.57;;;7.50;99.90;;;;;;5015681;28;20104;-81
2023/04/20 08:54:11;;;;;;;13.35;6.32;;;7.50;99.90;;;;;;5015656;28;20505;-81
2023/04/20 08:56:47;;;;;;;10.50;5.82;;;7.40;99.90;;;;;;4999293;28;20390;-79
2023/04/20 08:59:13;;;;;;;12.02;6.50;;;7.40;99.90;;;;;;5015835;28;20129;-80
2023/04/20 09:01:40;;;;;;;11.02;6.45;;;7.50;99.90;;;;;;4999217;28;20107;-79
2023/04/20 09:04:26;;;;;;;13.13;6.72;;;7.50;99.90;;;;;;5015193;28;20410;-81
2023/04/20 09:06:54;;;;;;;11.05;6.43;;;7.60;99.90;;;;;;4997952;28;20061;-80
2023/04/20 09:09:26;;;;;;;12.30;6.00;;;7.60;99.90;;;;;;4998784;28;20520;-79
2023/04/20 09:12:02;;;;;;;12.02;7.43;;;7.60;99.90;;;;;;5015304;28;20064;-80
2023/04/20 09:14:30;;;;;;;11.55;6.90;;;7.60;99.90;;;;;;5015265;28;20046;-81
2023/04/20 09:17:01;;;;;;;12.23;6.97;;;7.60;99.90;;;;;;5015258;28;20050;-81
2023/04/20 09:19:30;;;;;;;13.75;8.20;;;7.60;99.90;;;;;;4999013;28;20108;-80
2023/04/20 09:21:58;;;;;;;12.23;7.68;;;7.80;99.90;;;;;;5015151;28;20042;-80
2023/04/20 09:24:35;;;;;;;11.70;7.28;;;7.90;99.90;;;;;;5014886;28;20054;-80
2023/04/20 09:27:15;;;;;;;13.27;7.70;;;8.10;99.90;;;;;;4998736;28;20135;-81
2023/04/20 09:29:41;;;;;;;13.20;6.43;;;8.10;99.90;;;;;;5014888;28;20061;-80
2023/04/20 09:32:06;;;;;;;12.30;7.35;;;8.20;99.90;;;;;;5014644;28;20191;-82
2023/04/20 09:34:45;;;;;;;11.95;7.50;;;8.20;99.90;;;;;;5014873;28;20133;-81
2023/04/20 09:37:15;;;;;;;11.77;7.43;;;8.30;99.90;;;;;;5014788;28;20057;-80
2023/04/20 09:39:43;;;;;;;11.70;8.45;;;8.30;99.90;;;;;;5014894;28;20061;-82
2023/04/20 09:42:11;;;;;;;10.93;7.03;;;8.50;99.90;;;;;;5014756;28;20556;-80
2023/04/20 09:44:38;;;;;;;12.10;8.07;;;8.60;99.90;;;;;;5014662;28;20069;-80
2023/04/20 09:47:04;;;;;;;12.93;8.00;;;8.60;99.90;;;;;;4998430;28;20053;-80
2023/04/20 09:49:31;;;;;;;13.25;8.40;;;8.50;99.90;;;;;;5014351;28;20085;-81
2023/04/20 09:52:01;;;;;;;10.40;7.57;;;8.50;99.90;;;;;;4997935;28;20130;-81
2023/04/20 09:54:28;;;;;;;13.25;9.25;;;8.60;99.90;;;;;;5014541;28;20104;-80
2023/04/20 09:56:55;;;;;;;14.13;8.98;;;8.40;99.90;;;;;;5014543;28;20046;-81
2023/04/20 09:59:25;;;;;;;13.70;8.45;;;8.60;99.90;;;;;;5014767;28;20394;-81
2023/04/20 10:01:51;;;;;;;13.52;8.90;;;8.40;99.90;;;;;;5014533;28;20086;-80
2023/04/20 10:04:19;;;;;;;13.38;8.88;;;8.50;99.90;;;;;;4997954;28;20104;-81
2023/04/20 10:06:53;;;;;;;14.20;7.95;;;8.60;99.90;;;;;;4981995;28;20303;-82
2023/04/20 10:09:25;;;;;;;13.63;9.10;;;8.90;99.90;;;;;;5014074;28;20085;-82
2023/04/20 10:11:51;;;;;;;12.60;8.10;;;9.00;99.90;;;;;;5013931;28;20054;-81
2023/04/20 10:14:19;;;;;;;11.68;8.65;;;9.10;99.90;;;;;;4997456;28;20096;-82
2023/04/20 10:16:56;;;;;;;9.32;6.20;;;9.10;99.90;;;;;;5014160;28;20073;-81
2023/04/20 10:19:22;;;;;;;13.50;9.20;;;9.20;99.90;;;;;;5013262;28;20057;-82
2023/04/20 10:21:49;;;;;;;13.77;9.82;;;9.10;99.90;;;;;;5013659;28;20058;-81
2023/04/20 10:24:28;;;;;;;15.10;9.80;;;9.00;99.90;;;;;;5013854;28;20397;-82
2023/04/20 10:26:54;;;;;;;13.63;9.88;;;8.90;99.90;;;;;;5014011;28;20058;-81
2023/04/20 10:29:27;;;;;;;14.00;9.80;;;8.70;99.90;;;;;;5013911;28;20041;-82
2023/04/20 10:31:56;;;;;;;14.13;10.40;;;8.70;99.90;;;;;;5013855;28;20064;-82
2023/04/20 10:34:30;;;;;;;15.25;8.85;;;8.40;99.90;;;;;;4997518;28;20064;-81
2023/04/20 10:37:07;;;;;;;15.38;10.07;;;9.00;99.90;;;;;;5013697;28;20058;-80
2023/04/20 10:39:32;;;;;;;13.48;10.07;;;9.00;99.90;;;;;;4997231;28;20153;-82
2023/04/20 10:42:00;;;;;;;14.07;10.43;;;9.10;99.90;;;;;;5013750;28;20158;-81
2023/04/20 10:44:26;;;;;;;15.65;10.85;;;9.30;99.90;;;;;;5012958;28;20048;-81
2023/04/20 10:46:53;;;;;;;12.85;9.05;;;9.70;99.90;;;;;;5013551;28;20490;-81
2023/04/20 10:49:24;;;;;;;15.73;10.60;;;9.90;99.90;;;;;;5013319;28;20477;-82
2023/04/20 10:51:51;;;;;;;18.23;13.73;;;9.90;99.90;;;;;;4996703;28;20056;-81
2023/04/20 10:54:18;;;;;;;13.52;10.57;;;9.90;99.90;;;;;;5013348;28;20733;-81
2023/04/20 10:56:48;;;;;;;19.58;14.57;;;10.00;99.90;;;;;;5013252;28;20521;-81
2023/04/20 10:59:16;;;;;;;15.85;12.05;;;10.30;99.90;;;;;;5012684;28;20053;-81
2023/04/20 11:01:43;;;;;;;14.30;10.82;;;10.20;99.90;;;;;;4997152;28;20054;-83
2023/04/20 11:04:10;;;;;;;15.95;11.68;;;10.30;99.90;;;;;;5013222;28;20608;-82
2023/04/20 11:06:38;;;;;;;13.95;10.23;;;10.40;99.90;;;;;;5013059;28;20497;-80
2023/04/20 11:09:17;;;;;;;16.15;11.35;;;10.70;99.90;;;;;;4980011;28;20042;-80
2023/04/20 11:11:43;;;;;;;15.82;11.40;;;10.60;99.90;;;;;;5012894;28;20056;-80
2023/04/20 11:14:09;;;;;;;16.10;11.55;;;10.50;99.90;;;;;;5012987;28;20053;-81
2023/04/20 11:16:36;;;;;;;15.02;11.27;;;10.40;99.90;;;;;;5012477;28;20042;-81
2023/04/20 11:19:02;;;;;;;16.92;12.85;;;10.20;99.90;;;;;;5012753;28;20058;-82
2023/04/20 11:21:39;;;;;;;15.90;12.20;;;10.40;99.90;;;;;;5012667;28;20055;-82
2023/04/20 11:24:19;;;;;;;18.63;14.70;;;10.80;99.90;;;;;;5012236;28;20089;-83
2023/04/20 11:26:48;;;;;;;21.40;15.68;;;11.10;99.90;;;;;;4996670;28;20456;-82
2023/04/20 11:29:36;;;;;;;13.55;7.15;;;11.10;99.90;;;;;;4996612;28;20046;-83
2023/04/20 11:32:11;;;;;;;13.55;11.55;;;11.40;99.90;;;;;;4996203;28;20050;-84
2023/04/20 11:34:38;;;;;;;13.48;10.23;;;11.30;99.90;;;;;;5012830;28;20042;-84
2023/04/20 11:37:09;;;;;;;13.80;11.40;;;11.20;99.90;;;;;;5012981;28;20058;-85
2023/04/20 11:39:35;;;;;;;17.27;12.68;;;11.40;99.90;;;;;;4996414;28;20045;-84
2023/04/20 11:42:02;;;;;;;15.23;10.15;;;10.90;99.90;;;;;;4996544;28;20061;-84
2023/04/20 11:44:28;;;;;;;15.02;11.18;;;11.30;99.90;;;;;;5012903;28;20124;-87
2023/04/20 11:46:56;;;;;;;13.65;11.38;;;11.40;99.90;;;;;;5012302;28;20104;-84
2023/04/20 11:49:26;;;;;;;15.15;10.93;;;11.20;99.90;;;;;;4996336;28;20049;-84
2023/04/20 11:51:52;;;;;;;14.05;9.88;;;11.10;99.90;;;;;;5012385;28;20436;-85
2023/04/20 11:54:18;;;;;;;13.93;10.43;;;11.10;99.90;;;;;;4996295;28;20133;-84
2023/04/20 11:56:48;;;;;;;14.07;10.82;;;11.10;99.90;;;;;;5012747;28;20136;-85
2023/04/20 11:59:15;;;;;;;13.10;9.73;;;11.20;99.90;;;;;;5012288;28;20122;-85
2023/04/20 12:01:41;;;;;;;12.70;9.18;;;11.40;99.90;;;;;;5012310;28;20054;-86
2023/04/20 12:04:07;;;;;;;11.75;9.63;;;11.50;99.90;;;;;;5012429;28;20107;-85
2023/04/20 12:06:33;;;;;;;11.77;8.40;;;11.10;99.90;;;;;;5012554;28;20405;-85
2023/04/20 12:08:59;;;;;;;12.20;8.63;;;10.80;99.90;;;;;;4996271;28;20053;-87
2023/04/20 12:11:25;;;;;;;12.15;8.20;;;10.70;99.90;;;;;;4996263;28;20085;-84
2023/04/20 12:13:54;;;;;;;27.60;18.95;;;10.70;99.90;;;;;;5012313;28;20085;-84
2023/04/20 12:16:23;;;;;;;14.80;11.07;;;10.90;99.90;;;;;;5012282;28;20108;-85
2023/04/20 12:53:44;;;;;;;12.23;8.85;;;11.30;99.90;;;;;;4994796;28;20054;-86
2023/04/20 12:56:10;;;;;;;12.35;8.25;;;11.30;99.90;;;;;;4995253;28;20050;-87
2023/04/20 12:58:36;;;;;;;9.27;6.28;;;11.30;99.90;;;;;;4996238;28;20133;-86
2023/04/20 13:01:02;;;;;;;7.93;5.38;;;11.30;99.90;;;;;;4963869;28;20042;-88
2023/04/20 13:03:28;;;;;;;11.02;7.43;;;11.40;99.90;;;;;;4996263;28;20109;-86
2023/04/20 13:05:58;;;;;;;12.00;7.68;;;11.30;99.90;;;;;;4996140;28;20104;-87
2023/04/20 13:08:23;;;;;;;11.25;7.38;;;11.30;99.90;;;;;;4995966;28;20457;-86
2023/04/20 13:10:52;;;;;;;12.27;8.55;;;11.40;99.90;;;;;;4996925;28;20073;-86
2023/04/20 13:13:18;;;;;;;10.52;7.70;;;11.40;99.90;;;;;;4995929;28;20058;-86
2023/04/20 13:15:44;;;;;;;10.57;6.72;;;11.60;99.90;;;;;;4947372;28;20069;-86
2023/04/20 13:18:10;;;;;;;11.20;6.90;;;11.90;99.90;;;;;;4995885;28;20039;-87
2023/04/20 13:20:36;;;;;;;11.10;6.25;;;12.40;99.90;;;;;;4979259;28;20049;-85
2023/04/20 13:23:03;;;;;;;11.25;8.43;;;12.70;99.90;;;;;;4963113;28;20046;-86
2023/04/20 13:25:32;;;;;;;12.70;8.45;;;12.50;99.60;;;;;;4995466;28;20398;-86